Time;durP1;ratioP1;P1;durP2;ratioP2;P2;SDS_P1;SDS_P2;PMS_P1;PMS_P2;Temp;Humidity;BMP_temperature;BMP_pressure;BME280_temperature;BME280_humidity;BME280_pressure;Samples;Min_cycle;Max_cycle;Signal;HPM_P1;HPM_P2
2022/03/13 00:00:47;;;;;;;6.80;2.85;;;;;;;20.16;37.48;101548.59;5061753;28;20492;-50
2022/03/13 00:03:16;;;;;;;4.97;3.50;;;;;;;20.15;36.88;101548.78;5064715;28;20044;-50
2022/03/13 00:05:45;;;;;;;4.55;3.20;;;;;;;20.13;37.16;101553.44;5067431;28;20332;-52
2022/03/13 00:08:23;;;;;;;4.65;2.90;;;;;;;20.10;36.59;101548.34;5063046;28;20044;-50
2022/03/13 00:10:56;;;;;;;4.45;3.25;;;;;;;20.08;37.22;101548.50;5062494;28;20043;-51
2022/03/13 00:13:25;;;;;;;3.58;2.80;;;;;;;20.08;36.65;101555.75;5062899;28;20047;-51
2022/03/13 00:16:08;;;;;;;5.28;2.97;;;;;;;20.05;37.42;101562.25;5065164;28;20060;-49
2022/03/13 00:18:37;;;;;;;3.47;2.60;;;;;;;20.04;37.18;101549.81;5063017;28;20102;-50
2022/03/13 00:21:04;;;;;;;3.47;2.70;;;;;;;20.02;36.99;101548.25;5058424;28;20049;-51
2022/03/13 00:23:33;;;;;;;4.53;2.60;;;;;;;20.02;37.28;101543.75;5062390;28;20124;-48
2022/03/13 00:26:00;;;;;;;3.80;2.80;;;;;;;19.99;37.25;101546.72;5064936;28;20455;-46
2022/03/13 00:28:27;;;;;;;3.25;2.45;;;;;;;19.97;36.83;101541.47;5066728;28;20047;-49
2022/03/13 00:30:54;;;;;;;3.63;2.90;;;;;;;19.97;36.94;101548.72;5067038;28;20457;-47
2022/03/13 00:33:20;;;;;;;4.57;2.55;;;;;;;19.95;37.02;101548.88;5063769;28;20044;-48
2022/03/13 00:35:47;;;;;;;3.30;2.10;;;;;;;19.94;36.91;101538.28;5062414;28;20135;-53
2022/03/13 00:38:13;;;;;;;3.63;2.58;;;;;;;19.92;36.46;101540.25;5065369;28;20337;-51
2022/03/13 00:40:40;;;;;;;3.33;2.58;;;;;;;19.90;36.60;101540.41;5065831;28;20452;-52
2022/03/13 00:43:11;;;;;;;3.33;2.33;;;;;;;19.90;36.86;101540.41;5062743;28;20127;-51
2022/03/13 00:45:37;;;;;;;5.32;2.72;;;;;;;19.89;37.17;101538.69;5062169;28;20055;-48
2022/03/13 00:48:04;;;;;;;3.28;2.42;;;;;;;19.87;37.00;101535.31;5065287;28;20309;-49
2022/03/13 00:50:30;;;;;;;4.68;2.72;;;;;;;19.87;36.62;101534.47;5063949;28;20041;-50
2022/03/13 00:52:57;;;;;;;4.13;2.67;;;;;;;19.86;36.82;101539.00;5064696;28;20386;-49
2022/03/13 00:55:24;;;;;;;4.03;3.00;;;;;;;19.85;36.88;101533.75;5064018;28;20170;-49
2022/03/13 00:57:50;;;;;;;4.75;2.80;;;;;;;19.83;36.40;101536.63;5061646;28;20049;-50
2022/03/13 01:00:17;;;;;;;3.35;2.40;;;;;;;19.83;36.46;101543.84;5063155;28;20131;-49
2022/03/13 01:02:44;;;;;;;3.95;2.60;;;;;;;19.82;37.12;101542.13;5065038;28;20037;-51
2022/03/13 01:05:11;;;;;;;3.13;2.25;;;;;;;19.80;36.57;101534.22;5062529;28;20140;-49
2022/03/13 01:07:38;;;;;;;4.35;2.85;;;;;;;19.80;36.88;101531.53;5064249;28;20345;-53
2022/03/13 01:10:09;;;;;;;3.70;2.50;;;;;;;19.79;37.21;101531.69;5066446;28;20374;-49
2022/03/13 01:12:36;;;;;;;5.13;2.80;;;;;;;19.79;36.90;101529.84;5066265;28;20040;-50
2022/03/13 01:15:03;;;;;;;4.25;2.70;;;;;;;19.80;36.32;101534.22;5067516;28;20054;-51
2022/03/13 01:17:30;;;;;;;3.40;2.42;;;;;;;19.78;37.08;101525.47;5067408;28;20052;-49
2022/03/13 01:19:56;;;;;;;3.42;2.30;;;;;;;19.78;36.53;101527.28;5069008;28;20059;-50
2022/03/13 01:22:23;;;;;;;3.53;2.58;;;;;;;19.76;36.37;101522.06;5067337;28;20123;-48
2022/03/13 01:24:51;;;;;;;3.88;2.42;;;;;;;19.73;36.40;101522.34;5068427;28;20698;-48
2022/03/13 01:27:18;;;;;;;4.90;3.08;;;;;;;19.73;37.06;101517.81;5066222;28;20150;-50
2022/03/13 01:29:45;;;;;;;3.42;2.50;;;;;;;19.73;36.98;101523.19;5066819;28;20098;-49
2022/03/13 01:32:13;;;;;;;3.40;2.63;;;;;;;19.72;36.46;101515.28;5064643;28;20037;-51
2022/03/13 01:34:42;;;;;;;3.40;2.72;;;;;;;19.71;36.96;101525.19;5064911;28;20420;-49
2022/03/13 01:37:13;;;;;;;3.63;2.80;;;;;;;19.70;36.41;101518.13;5067372;28;20132;-48
2022/03/13 01:39:41;;;;;;;3.28;2.35;;;;;;;19.71;36.52;101518.97;5067758;28;20097;-49
2022/03/13 01:42:08;;;;;;;3.97;2.38;;;;;;;19.69;36.64;101512.88;5069659;28;20167;-51
2022/03/13 01:44:34;;;;;;;3.97;2.67;;;;;;;19.68;36.56;101514.72;5066941;28;20052;-51
2022/03/13 01:47:01;;;;;;;3.80;2.55;;;;;;;19.69;36.37;101507.50;5063014;28;20124;-48
2022/03/13 01:49:28;;;;;;;3.67;2.08;;;;;;;19.69;36.52;101500.28;5065354;28;20076;-51
2022/03/13 01:51:56;;;;;;;3.70;2.47;;;;;;;19.68;36.91;101495.91;5069044;28;20120;-48
2022/03/13 01:54:23;;;;;;;2.88;2.33;;;;;;;19.67;36.61;101493.38;5068096;28;20087;-47
2022/03/13 01:56:50;;;;;;;3.58;2.28;;;;;;;19.66;36.83;101489.00;5067641;28;20134;-48
2022/03/13 01:59:17;;;;;;;4.07;2.45;;;;;;;19.65;36.53;101487.28;5064530;28;20047;-48
2022/03/13 02:01:44;;;;;;;3.42;2.67;;;;;;;19.65;36.64;101480.06;5066822;28;20088;-51
2022/03/13 02:04:13;;;;;;;3.92;2.30;;;;;;;19.63;36.65;101471.31;5067591;28;20051;-52
2022/03/13 02:06:40;;;;;;;3.90;2.60;;;;;;;19.61;36.17;101467.91;5066784;28;20327;-51
2022/03/13 02:09:13;;;;;;;4.15;2.47;;;;;;;19.61;36.69;101467.03;5066188;28;20052;-51
2022/03/13 02:11:42;;;;;;;3.75;2.13;;;;;;;19.58;36.50;101465.50;5061840;28;20047;-51
2022/03/13 02:14:11;;;;;;;3.53;1.95;;;;;;;19.59;36.57;101469.03;5066175;28;20064;-50
2022/03/13 02:16:38;;;;;;;3.10;2.38;;;;;;;19.55;36.59;101460.41;5065377;28;20418;-49
2022/03/13 02:19:06;;;;;;;2.67;1.95;;;;;;;19.54;36.71;101455.16;5068968;28;20052;-49
2022/03/13 02:21:39;;;;;;;3.33;2.42;;;;;;;19.53;36.56;101457.00;5063213;28;20041;-49
2022/03/13 02:24:11;;;;;;;4.15;2.72;;;;;;;19.52;36.17;101455.31;5064467;28;20076;-48
2022/03/13 02:26:37;;;;;;;3.13;2.05;;;;;;;19.53;37.16;101453.47;5066573;28;20131;-51
2022/03/13 02:29:11;;;;;;;3.60;2.20;;;;;;;19.52;36.55;101443.72;5065375;28;20051;-49
2022/03/13 02:31:39;;;;;;;2.53;2.05;;;;;;;19.49;36.48;101456.44;5066717;28;20040;-53
2022/03/13 02:34:12;;;;;;;2.97;1.92;;;;;;;19.49;36.91;101439.47;5063999;28;20048;-52
2022/03/13 02:36:38;;;;;;;2.67;1.80;;;;;;;19.48;36.97;101443.16;5065555;28;20044;-51
2022/03/13 02:39:07;;;;;;;2.40;1.75;;;;;;;19.47;37.02;101441.47;5065898;28;20059;-52
2022/03/13 02:41:34;;;;;;;3.08;2.00;;;;;;;19.48;36.76;101437.78;5067496;28;20071;-47
2022/03/13 02:44:01;;;;;;;2.95;2.10;;;;;;;19.47;36.35;101441.47;5068595;28;20136;-52
2022/03/13 02:46:45;;;;;;;1.80;1.60;;;;;;;19.45;36.66;101435.41;5067728;28;20248;-51
2022/03/13 02:49:18;;;;;;;1.83;1.50;;;;;;;19.45;36.96;101440.78;5066662;28;20049;-51
2022/03/13 02:51:46;;;;;;;3.10;1.65;;;;;;;19.45;36.83;101438.09;5067019;28;20036;-51
2022/03/13 02:54:13;;;;;;;2.90;1.98;;;;;;;19.43;37.15;101438.25;5066355;28;20424;-48
2022/03/13 02:56:40;;;;;;;2.45;1.98;;;;;;;19.43;36.40;101429.34;5066887;28;20049;-51
2022/03/13 02:59:06;;;;;;;2.00;1.73;;;;;;;19.45;36.97;101427.31;5066502;28;20662;-50
2022/03/13 03:01:34;;;;;;;2.90;2.28;;;;;;;19.41;36.52;101431.31;5064386;28;20033;-51
2022/03/13 03:04:01;;;;;;;3.50;2.30;;;;;;;19.42;36.30;101433.03;5068351;28;21342;-49
2022/03/13 03:06:30;;;;;;;4.72;1.73;;;;;;;19.41;36.66;101434.84;5062166;28;20124;-50
2022/03/13 03:08:57;;;;;;;2.58;1.95;;;;;;;19.40;36.60;101437.69;5065718;28;20135;-50
2022/03/13 03:11:23;;;;;;;3.83;1.98;;;;;;;19.38;36.67;101435.16;5067288;28;20061;-48
2022/03/13 03:13:50;;;;;;;2.45;1.77;;;;;;;19.37;36.84;101428.06;5065688;28;20068;-51
2022/03/13 03:16:16;;;;;;;2.15;1.73;;;;;;;19.37;36.89;101429.91;5065867;28;20404;-48
2022/03/13 03:18:43;;;;;;;3.05;1.90;;;;;;;19.35;36.49;101431.91;5065050;28;20047;-51
2022/03/13 03:21:11;;;;;;;2.45;2.05;;;;;;;19.36;36.73;101428.22;5065553;28;20051;-50
2022/03/13 03:23:37;;;;;;;3.03;2.17;;;;;;;19.35;36.29;101435.44;5062046;28;20074;-47
2022/03/13 03:26:06;;;;;;;3.53;2.00;;;;;;;19.34;36.16;101433.75;5063620;28;20116;-48
2022/03/13 03:28:34;;;;;;;2.55;2.00;;;;;;;19.34;36.77;101436.44;5063704;28;20052;-51
2022/03/13 03:31:02;;;;;;;2.80;2.03;;;;;;;19.34;36.46;101433.75;5067739;28;20072;-47
2022/03/13 03:33:29;;;;;;;3.17;2.28;;;;;;;19.34;36.38;101430.22;5066591;28;20072;-50
2022/03/13 03:35:56;;;;;;;3.10;2.15;;;;;;;19.31;36.65;101443.97;5063853;28;20052;-50
2022/03/13 03:38:22;;;;;;;2.70;2.25;;;;;;;19.29;35.94;101432.50;5062400;28;20483;-50
2022/03/13 03:40:51;;;;;;;3.88;2.55;;;;;;;19.27;36.64;101445.25;5067831;28;20032;-49
2022/03/13 03:43:18;;;;;;;2.15;1.88;;;;;;;19.26;36.24;101444.41;5064431;28;20050;-50
2022/03/13 03:45:44;;;;;;;3.60;2.40;;;;;;;19.27;36.69;101442.56;5064698;28;20124;-52
2022/03/13 03:48:11;;;;;;;3.15;2.05;;;;;;;19.25;36.67;101440.00;5061809;28;20123;-51
2022/03/13 03:50:38;;;;;;;5.35;2.35;;;;;;;19.24;36.31;101441.00;5066283;28;20059;-52
2022/03/13 03:53:04;;;;;;;6.15;2.50;;;;;;;19.23;36.46;101444.69;5065590;28;20045;-48
2022/03/13 03:55:31;;;;;;;3.67;2.38;;;;;;;19.21;36.75;101442.13;5064503;28;20060;-50
2022/03/13 03:57:57;;;;;;;3.65;2.60;;;;;;;19.20;36.06;101450.34;5064783;28;20068;-49
2022/03/13 04:00:24;;;;;;;3.55;2.40;;;;;;;19.19;36.72;101437.91;5065982;28;20106;-50
2022/03/13 04:02:51;;;;;;;3.20;2.30;;;;;;;19.18;36.41;101450.50;5063398;28;20131;-52
2022/03/13 04:05:17;;;;;;;3.10;2.45;;;;;;;19.16;36.51;101444.41;5064094;28;20084;-52
2022/03/13 04:07:44;;;;;;;3.97;2.50;;;;;;;19.16;36.49;101444.41;5066599;28;20059;-49
2022/03/13 04:10:13;;;;;;;4.43;2.55;;;;;;;19.16;36.72;101444.41;5061577;28;20136;-48
2022/03/13 04:12:39;;;;;;;4.13;2.65;;;;;;;19.14;36.68;101443.75;5065387;28;20179;-51
2022/03/13 04:15:06;;;;;;;3.08;2.47;;;;;;;19.13;36.71;101436.66;5064607;28;20045;-50
2022/03/13 04:17:34;;;;;;;2.90;2.17;;;;;;;19.11;36.41;101435.13;5066143;28;20075;-49
2022/03/13 04:20:02;;;;;;;3.03;2.20;;;;;;;19.10;36.87;101436.13;5065751;28;20050;-51
2022/03/13 04:22:29;;;;;;;2.45;2.10;;;;;;;19.07;36.87;101445.31;5063546;28;20040;-51
2022/03/13 04:24:55;;;;;;;5.70;3.00;;;;;;;19.08;36.71;101440.78;5063200;28;20459;-49
2022/03/13 04:27:22;;;;;;;2.63;2.00;;;;;;;19.06;36.36;101434.72;5064798;28;20040;-49
2022/03/13 04:29:48;;;;;;;4.03;2.38;;;;;;;19.04;36.50;101432.16;5064081;28;20343;-48
2022/03/13 04:32:17;;;;;;;2.50;2.10;;;;;;;19.03;37.00;101433.16;5063988;28;20503;-51
2022/03/13 04:34:44;;;;;;;3.22;2.30;;;;;;;19.02;36.83;101436.00;5064142;28;20094;-49
2022/03/13 04:37:11;;;;;;;3.88;2.08;;;;;;;18.99;36.89;101437.97;5062295;28;20047;-52
2022/03/13 04:39:38;;;;;;;2.88;2.17;;;;;;;18.99;36.77;101437.13;5065051;28;20041;-52
2022/03/13 04:42:06;;;;;;;2.72;1.95;;;;;;;18.99;37.10;101434.44;5065482;28;20040;-49
2022/03/13 04:44:33;;;;;;;3.42;2.33;;;;;;;18.97;37.04;101429.22;5062344;28;20127;-52
2022/03/13 04:47:00;;;;;;;2.80;2.10;;;;;;;18.98;36.85;101427.38;5064663;28;20123;-51
2022/03/13 04:49:27;;;;;;;2.35;1.95;;;;;;;18.99;36.77;101432.59;5067403;28;20404;-51
2022/03/13 04:51:54;;;;;;;2.70;1.73;;;;;;;18.97;37.04;101437.28;5069699;28;20055;-52
2022/03/13 04:54:20;;;;;;;3.58;2.25;;;;;;;18.98;36.74;101435.44;5068589;28;20469;-48
2022/03/13 04:56:47;;;;;;;3.53;2.17;;;;;;;18.97;37.00;101431.91;5068381;28;20079;-48
2022/03/13 04:59:13;;;;;;;3.00;2.30;;;;;;;19.00;36.89;101436.13;5070890;28;20037;-49
2022/03/13 05:01:40;;;;;;;3.08;2.38;;;;;;;18.99;36.83;101431.75;5069124;28;20032;-52
2022/03/13 05:04:13;;;;;;;2.38;1.90;;;;;;;18.97;36.59;101434.59;5066493;28;20057;-50
2022/03/13 05:06:45;;;;;;;2.22;1.88;;;;;;;18.97;36.95;101434.59;5069704;28;20132;-50
2022/03/13 05:09:11;;;;;;;3.65;2.50;;;;;;;18.97;36.56;101428.34;5066898;28;20044;-50
2022/03/13 05:11:41;;;;;;;3.30;2.35;;;;;;;18.96;37.15;101423.97;5066205;28;20067;-49
2022/03/13 05:14:07;;;;;;;3.80;2.53;;;;;;;18.97;36.67;101423.84;5067592;28;20158;-51
2022/03/13 05:16:34;;;;;;;3.88;2.53;;;;;;;18.96;36.89;101418.59;5067971;28;20055;-49
2022/03/13 05:19:00;;;;;;;4.10;2.80;;;;;;;18.94;36.58;101418.75;5064548;28;20688;-51
2022/03/13 05:21:27;;;;;;;3.88;2.67;;;;;;;18.93;36.54;101422.41;5069188;28;20552;-50
2022/03/13 05:23:54;;;;;;;4.63;2.67;;;;;;;18.92;36.93;101417.22;5067845;28;20079;-50
2022/03/13 05:26:20;;;;;;;5.80;2.75;;;;;;;18.91;37.13;101416.38;5067237;28;20051;-48
2022/03/13 05:28:47;;;;;;;3.88;2.78;;;;;;;18.91;36.78;101405.63;5066389;28;20040;-49
2022/03/13 05:31:14;;;;;;;4.20;3.17;;;;;;;18.91;36.63;101412.84;5068842;28;20049;-49
2022/03/13 05:33:41;;;;;;;5.20;2.80;;;;;;;18.90;36.76;101416.53;5067683;28;20045;-47
2022/03/13 05:36:08;;;;;;;4.00;2.83;;;;;;;18.87;36.70;101412.28;5068007;28;20047;-50
2022/03/13 05:38:35;;;;;;;5.60;3.53;;;;;;;18.87;36.89;101409.59;5066187;28;20182;-52
2022/03/13 05:41:02;;;;;;;4.35;3.10;;;;;;;18.88;36.55;101413.13;5063929;28;20361;-49
2022/03/13 05:43:31;;;;;;;5.28;3.72;;;;;;;18.87;36.60;101411.44;5066509;28;20043;-48
2022/03/13 05:45:58;;;;;;;6.18;3.63;;;;;;;18.87;36.89;101412.28;5069041;28;20044;-50
2022/03/13 05:48:25;;;;;;;5.53;3.85;;;;;;;18.87;36.73;101422.19;5067121;28;20128;-52
2022/03/13 05:50:52;;;;;;;5.28;3.88;;;;;;;18.87;36.94;101422.19;5064784;28;20049;-51
2022/03/13 05:53:19;;;;;;;5.15;3.67;;;;;;;18.85;36.66;101418.78;5068152;28;20102;-51
2022/03/13 05:55:45;;;;;;;6.53;4.30;;;;;;;18.85;36.96;101413.41;5067074;28;20044;-49
2022/03/13 05:58:13;;;;;;;6.35;4.35;;;;;;;18.83;36.75;101429.66;5066186;28;20119;-48
2022/03/13 06:00:40;;;;;;;6.25;4.40;;;;;;;18.83;36.66;101413.56;5066211;28;20128;-49
2022/03/13 06:03:08;;;;;;;7.03;4.68;;;;;;;18.84;37.02;101422.47;5062966;28;20036;-49
2022/03/13 06:05:35;;;;;;;7.40;4.55;;;;;;;18.82;36.55;101417.25;5067859;28;20454;-52
2022/03/13 06:08:03;;;;;;;6.03;4.25;;;;;;;18.81;36.44;101417.38;5067157;28;20116;-49
2022/03/13 06:10:29;;;;;;;5.70;4.45;;;;;;;18.79;36.49;101414.84;5066746;28;20086;-48
2022/03/13 06:12:56;;;;;;;6.85;5.10;;;;;;;18.79;36.14;101420.22;5064897;28;20375;-52
2022/03/13 06:15:23;;;;;;;8.27;4.85;;;;;;;18.79;36.41;101422.06;5064186;28;20040;-48
2022/03/13 06:17:51;;;;;;;6.78;4.65;;;;;;;18.80;36.41;101442.53;5065455;28;20052;-53
2022/03/13 06:20:18;;;;;;;8.13;5.82;;;;;;;18.77;36.50;101426.72;5066498;28;20041;-52
2022/03/13 06:22:46;;;;;;;6.97;4.75;;;;;;;18.76;36.60;101438.44;5065734;28;20384;-49
2022/03/13 06:25:14;;;;;;;7.70;5.60;;;;;;;18.75;36.25;101437.59;5065298;28;20045;-49
2022/03/13 06:27:41;;;;;;;7.32;5.43;;;;;;;18.76;36.11;101435.75;5066720;28;20060;-50
2022/03/13 06:30:16;;;;;;;8.10;5.85;;;;;;;18.76;36.21;101433.06;5066385;28;20187;-53
2022/03/13 06:32:48;;;;;;;10.70;5.05;;;;;;;18.74;35.95;101443.97;5065054;28;20127;-49
2022/03/13 06:35:17;;;;;;;7.95;5.13;;;;;;;18.74;36.50;101446.66;5063892;28;20088;-52
2022/03/13 06:37:44;;;;;;;8.18;5.93;;;;;;;18.73;36.38;101443.13;5068442;28;20089;-50
2022/03/13 06:40:14;;;;;;;8.43;5.60;;;;;;;18.71;36.12;101445.09;5068122;28;20095;-52
2022/03/13 06:42:40;;;;;;;9.55;5.45;;;;;;;18.71;36.25;101442.41;5066117;28;20128;-49
2022/03/13 06:45:11;;;;;;;7.55;5.57;;;;;;;18.69;35.97;101441.69;5066250;28;20128;-50
2022/03/13 06:47:38;;;;;;;9.65;6.20;;;;;;;18.70;36.27;101443.41;5063873;28;20044;-48
2022/03/13 06:50:07;;;;;;;8.38;5.35;;;;;;;18.69;36.23;101440.81;5064376;28;20448;-47
2022/03/13 06:52:34;;;;;;;9.05;5.85;;;;;;;18.68;36.50;101448.03;5065902;28;20407;-48
2022/03/13 06:55:02;;;;;;;7.65;5.25;;;;;;;18.68;36.09;101448.03;5064011;28;20124;-52
2022/03/13 06:57:28;;;;;;;7.95;5.60;;;;;;;18.66;35.93;101439.28;5065108;28;20048;-50
2022/03/13 06:59:57;;;;;;;7.80;5.38;;;;;;;18.66;36.19;101441.97;5064562;28;20044;-53
2022/03/13 07:02:24;;;;;;;7.32;5.30;;;;;;;18.65;36.45;101437.59;5061278;28;20080;-52
2022/03/13 07:04:51;;;;;;;10.60;5.63;;;;;;;18.64;36.76;101437.72;5067346;28;20075;-51
2022/03/13 07:07:18;;;;;;;8.05;5.80;;;;;;;18.64;36.30;101443.09;5066304;28;20056;-50
2022/03/13 07:09:45;;;;;;;7.70;5.40;;;;;;;18.62;36.34;101445.94;5061214;28;20152;-51
2022/03/13 07:12:12;;;;;;;7.85;5.60;;;;;;;18.64;36.18;101446.63;5060721;28;20343;-50
2022/03/13 07:14:45;;;;;;;8.00;5.80;;;;;;;18.61;36.17;101446.91;5059036;28;20339;-51
2022/03/13 07:17:12;;;;;;;9.02;5.80;;;;;;;18.61;36.60;101444.22;5062078;28;20043;-53
2022/03/13 07:19:40;;;;;;;6.90;5.28;;;;;;;18.63;35.84;101442.25;5064754;28;20041;-48
2022/03/13 07:22:09;;;;;;;8.52;5.90;;;;;;;18.62;36.29;101445.94;5064721;28;20083;-52
2022/03/13 07:24:36;;;;;;;10.13;6.45;;;;;;;18.62;36.23;101437.88;5061542;28;20072;-48
2022/03/13 07:27:03;;;;;;;6.65;5.25;;;;;;;18.63;35.94;101444.94;5061181;28;20041;-51
2022/03/13 07:29:29;;;;;;;8.98;6.30;;;;;;;18.61;36.22;101443.38;5074829;28;20048;-48
2022/03/13 07:31:56;;;;;;;8.27;5.72;;;;;;;18.62;36.60;101445.09;5061923;28;20332;-48
2022/03/13 07:34:24;;;;;;;8.35;5.82;;;;;;;18.62;36.38;101456.66;5064036;28;20045;-49
2022/03/13 07:36:54;;;;;;;8.60;4.75;;;;;;;18.63;36.50;101453.00;5061961;28;20135;-51
2022/03/13 07:39:21;;;;;;;8.07;5.82;;;;;;;18.65;36.09;101458.19;5058797;28;20063;-49
2022/03/13 07:41:49;;;;;;;8.50;5.78;;;;;;;18.64;36.16;101452.00;5065285;28;20037;-48
2022/03/13 07:44:15;;;;;;;7.97;5.75;;;;;;;18.64;36.44;101460.03;5061411;28;20148;-49
2022/03/13 07:46:42;;;;;;;8.40;6.15;;;;;;;18.66;36.11;101462.59;5062059;28;20040;-49
2022/03/13 07:49:09;;;;;;;10.68;5.90;;;;;;;18.65;36.34;101460.88;5059219;28;20461;-50
2022/03/13 07:51:35;;;;;;;7.90;5.60;;;;;;;18.64;36.26;101462.72;5062244;28;20103;-47
2022/03/13 07:54:03;;;;;;;9.73;6.18;;;;;;;18.65;36.30;101459.06;5061007;28;20037;-51
2022/03/13 07:56:29;;;;;;;8.18;6.00;;;;;;;18.66;35.85;101446.50;5060303;28;20335;-50
2022/03/13 07:58:56;;;;;;;8.68;6.28;;;;;;;18.66;36.02;101444.66;5061191;28;20044;-47
2022/03/13 08:01:23;;;;;;;9.60;6.68;;;;;;;18.68;35.94;101445.34;5063080;28;20064;-47
2022/03/13 08:03:51;;;;;;;8.98;6.43;;;;;;;18.71;36.36;101444.25;5059177;28;20045;-48
2022/03/13 08:06:18;;;;;;;9.35;6.30;;;;;;;18.73;36.13;101448.50;5057477;28;20044;-48
2022/03/13 08:08:44;;;;;;;9.05;6.05;;;;;;;18.78;35.96;101447.22;5060657;28;20044;-50
2022/03/13 08:11:11;;;;;;;9.02;6.13;;;;;;;18.79;35.55;101436.31;5060385;28;20049;-48
2022/03/13 08:13:38;;;;;;;7.45;5.40;;;;;;;18.82;36.06;101435.19;5060738;28;20047;-51
2022/03/13 08:16:04;;;;;;;9.45;5.40;;;;;;;18.84;36.06;101434.03;5060040;28;20059;-47
2022/03/13 08:18:34;;;;;;;8.88;5.90;;;;;;;18.88;36.03;101429.22;5062852;28;20051;-48
2022/03/13 08:21:01;;;;;;;7.75;5.70;;;;;;;18.92;36.06;101436.00;5065197;28;20414;-52
2022/03/13 08:23:27;;;;;;;9.45;5.95;;;;;;;18.97;36.03;101431.03;5064545;28;20036;-48
2022/03/13 08:25:54;;;;;;;7.03;5.63;;;;;;;19.01;35.96;101435.13;5066185;28;20085;-50
2022/03/13 08:28:21;;;;;;;9.10;5.80;;;;;;;19.04;36.25;101425.94;5069133;28;20131;-47
2022/03/13 08:30:47;;;;;;;10.35;6.05;;;;;;;19.07;36.09;101439.94;5064221;28;20051;-51
2022/03/13 08:33:14;;;;;;;11.15;5.85;;;;;;;19.11;35.83;101424.38;5066163;28;20147;-52
2022/03/13 08:35:40;;;;;;;8.18;5.70;;;;;;;19.13;35.67;101422.38;5067269;28;20132;-49
2022/03/13 08:38:07;;;;;;;9.82;6.00;;;;;;;19.15;35.49;101423.09;5067308;28;20057;-48
2022/03/13 08:40:34;;;;;;;9.55;5.78;;;;;;;19.16;35.41;101416.72;5067066;28;20041;-50
2022/03/13 08:43:00;;;;;;;10.60;6.68;;;;;;;19.15;35.11;101415.88;5069896;28;20087;-50
2022/03/13 08:45:27;;;;;;;10.02;6.60;;;;;;;19.14;34.97;101418.72;5068998;28;20090;-52
2022/03/13 08:47:53;;;;;;;8.57;6.13;;;;;;;19.11;35.24;101425.22;5065387;28;20423;-50
2022/03/13 08:50:20;;;;;;;9.18;6.53;;;;;;;19.11;34.81;101427.91;5069537;28;20066;-48
2022/03/13 08:52:47;;;;;;;8.80;5.85;;;;;;;19.12;35.62;101415.31;5066862;28;20120;-48
2022/03/13 08:55:18;;;;;;;8.18;6.45;;;;;;;19.14;35.40;101422.25;5070806;28;20508;-50
2022/03/13 08:57:46;;;;;;;8.68;6.55;;;;;;;19.16;35.00;101420.22;5071109;28;20040;-51
2022/03/13 09:00:14;;;;;;;10.35;6.80;;;;;;;19.18;35.60;101414.72;5066120;28;20131;-49
2022/03/13 09:02:41;;;;;;;9.27;6.32;;;;;;;19.19;35.08;101408.34;5066931;28;20139;-50
2022/03/13 09:05:08;;;;;;;9.95;6.72;;;;;;;19.21;35.06;101415.25;5067861;28;20052;-52
2022/03/13 09:07:35;;;;;;;10.15;6.97;;;;;;;19.22;34.75;101422.34;5064984;28;20044;-49
2022/03/13 09:10:04;;;;;;;10.30;6.72;;;;;;;19.24;35.17;101428.41;5066472;28;20144;-48
2022/03/13 09:12:31;;;;;;;12.98;7.38;;;;;;;19.27;35.51;101424.59;5068422;28;20144;-48
2022/03/13 09:14:58;;;;;;;10.82;6.93;;;;;;;19.29;35.07;101424.44;5069214;28;20079;-50
2022/03/13 09:17:25;;;;;;;10.43;6.85;;;;;;;19.31;34.70;101425.16;5067182;28;20071;-48
2022/03/13 09:19:53;;;;;;;10.52;6.40;;;;;;;19.32;34.88;101416.91;5070681;28;20067;-49
2022/03/13 09:22:20;;;;;;;11.75;7.47;;;;;;;19.34;35.07;101423.00;5068167;28;20140;-52
2022/03/13 09:24:47;;;;;;;11.23;7.25;;;;;;;19.37;35.10;101414.63;5068662;28;20151;-50
2022/03/13 09:27:14;;;;;;;9.27;6.35;;;;;;;19.41;34.79;101415.19;5067046;28;20058;-50
2022/03/13 09:29:41;;;;;;;8.52;5.90;;;;;;;19.45;34.77;101416.56;5067609;28;20057;-52
2022/03/13 09:32:07;;;;;;;10.38;6.63;;;;;;;19.49;35.09;101409.91;5067624;28;20055;-52
2022/03/13 09:34:34;;;;;;;8.73;6.20;;;;;;;19.53;35.12;101408.59;5066180;28;20405;-49
2022/03/13 09:37:01;;;;;;;8.65;5.55;;;;;;;19.59;35.13;101405.34;5064128;28;20144;-53
2022/03/13 09:39:29;;;;;;;7.13;4.88;;;;;;;19.63;35.58;101408.59;5067089;28;20041;-52
2022/03/13 09:41:56;;;;;;;8.18;5.43;;;;;;;19.68;35.13;101407.16;5069420;28;20159;-51
2022/03/13 09:44:24;;;;;;;9.20;6.18;;;;;;;19.74;35.25;101405.72;5066144;28;20053;-53
2022/03/13 09:46:51;;;;;;;7.70;5.10;;;;;;;19.80;35.03;101409.63;5067086;28;20139;-50
2022/03/13 09:49:20;;;;;;;7.47;5.20;;;;;;;19.84;34.99;101416.41;5070904;28;20048;-53
2022/03/13 09:51:47;;;;;;;8.02;5.40;;;;;;;19.90;35.46;101410.41;5067527;28;20129;-53
2022/03/13 09:54:14;;;;;;;7.03;5.07;;;;;;;19.96;35.34;101407.94;5069166;28;20052;-50
2022/03/13 09:56:40;;;;;;;8.25;5.25;;;;;;;20.01;35.48;101415.56;5068962;28;20048;-50
2022/03/13 09:59:07;;;;;;;7.88;4.65;;;;;;;20.06;35.69;101412.41;5068674;28;20787;-52
2022/03/13 10:01:34;;;;;;;9.07;4.78;;;;;;;20.11;35.07;101402.91;5069907;28;20041;-52
2022/03/13 10:04:04;;;;;;;7.10;4.68;;;;;;;20.16;35.51;101408.66;5066948;28;20059;-51
2022/03/13 10:06:33;;;;;;;7.82;5.35;;;;;;;20.19;35.76;101407.50;5069408;28;20072;-52
2022/03/13 10:09:26;;;;;;;9.15;5.57;;;;;;;20.25;35.77;101414.09;5064128;28;20064;-51
2022/03/13 10:12:08;;;;;;;7.07;4.63;;;;;;;20.31;35.16;101408.13;5063827;28;20068;-50
2022/03/13 10:15:04;;;;;;;6.95;5.28;;;;;;;20.35;35.48;101404.97;5064402;28;20538;-49
2022/03/13 10:17:33;;;;;;;8.23;4.93;;;;;;;20.39;35.23;101406.34;5066019;28;20078;-51
2022/03/13 10:20:14;;;;;;;6.82;4.60;;;;;;;20.43;35.77;101407.72;5064256;28;20107;-48
2022/03/13 10:22:42;;;;;;;7.10;4.88;;;;;;;20.46;35.43;101402.03;5065240;28;20143;-52
2022/03/13 10:25:09;;;;;;;9.23;4.90;;;;;;;20.50;35.03;101396.34;5064191;28;20127;-50
2022/03/13 10:27:35;;;;;;;7.43;4.88;;;;;;;20.52;34.86;101403.28;5062506;28;20044;-53
2022/03/13 10:30:08;;;;;;;7.20;4.60;;;;;;;20.55;34.98;101402.13;5068097;28;20156;-50
2022/03/13 10:32:36;;;;;;;7.57;5.50;;;;;;;20.58;34.93;101410.75;5065634;28;20136;-51
2022/03/13 10:35:04;;;;;;;7.80;5.05;;;;;;;20.62;35.43;101408.56;5066880;28;20051;-51
2022/03/13 10:37:40;;;;;;;7.72;4.82;;;;;;;20.64;35.43;101404.72;5067338;28;20052;-49
2022/03/13 10:40:12;;;;;;;6.97;4.72;;;;;;;20.67;35.19;101404.41;5065120;28;20040;-51
2022/03/13 10:42:43;;;;;;;7.85;5.78;;;;;;;20.71;34.63;101407.63;5066056;28;20175;-49
2022/03/13 10:45:31;;;;;;;8.55;4.90;;;;;;;20.72;34.82;101403.94;5064570;28;20725;-48
2022/03/13 10:48:28;;;;;;;7.38;5.18;;;;;;;20.74;35.03;101396.53;5062770;28;20504;-52
2022/03/13 10:50:58;;;;;;;8.48;5.00;;;;;;;20.77;34.88;101393.50;5065570;28;20075;-53
2022/03/13 10:53:28;;;;;;;7.95;5.03;;;;;;;20.79;35.11;101396.91;5065052;28;20248;-52
2022/03/13 10:56:13;;;;;;;7.85;4.90;;;;;;;20.81;35.24;101402.13;5067456;28;20131;-51
2022/03/13 10:58:40;;;;;;;7.57;5.10;;;;;;;20.82;35.20;101385.78;5064686;28;20123;-52
2022/03/13 11:01:11;;;;;;;7.25;4.60;;;;;;;20.82;35.38;101387.66;5065780;28;20068;-49
2022/03/13 11:03:52;;;;;;;8.23;5.13;;;;;;;20.84;35.14;101394.56;5068524;28;20054;-50
2022/03/13 11:06:21;;;;;;;8.25;4.45;;;;;;;20.86;35.32;101389.03;5064666;28;20137;-53
2022/03/13 11:08:51;;;;;;;7.30;4.53;;;;;;;20.87;34.98;101382.66;5063794;28;20127;-51
2022/03/13 11:11:19;;;;;;;7.35;4.78;;;;;;;20.88;34.72;101382.47;5027436;28;1055769;-51
2022/03/13 11:13:54;;;;;;;13.57;4.50;;;;;;;20.90;34.56;101377.78;5065521;28;20140;-50
2022/03/13 11:16:26;;;;;;;8.57;5.15;;;;;;;20.92;34.62;101370.38;5064608;28;20452;-52
2022/03/13 11:18:54;;;;;;;6.60;4.53;;;;;;;20.95;35.12;101374.59;5063900;28;20147;-50
2022/03/13 11:21:22;;;;;;;7.68;4.63;;;;;;;20.95;35.17;101370.06;5068623;28;20044;-51
2022/03/13 11:23:49;;;;;;;7.63;4.53;;;;;;;20.95;35.18;101367.38;5063909;28;20064;-49
2022/03/13 11:26:20;;;;;;;6.63;4.75;;;;;;;20.96;35.07;101370.91;5063396;28;20123;-49
2022/03/13 11:28:48;;;;;;;7.18;4.53;;;;;;;20.98;35.29;101373.44;5066109;28;20044;-53